Thunder Bay Airport
CYQT : rendu visible

Aérodrome :











RETROUVEZ-NOUS SUR...

 
LOGIN :

S'inscrire | Disclaimer

   EN    FR    IT 

 









Légende :    VFR   VFR Marginal   IFR   IFR Intensif   IFR Très Intensif
Visi : 
Plafond : 
>= 8 km
>= 3000ft
5 à 8 km
1000 à 3000 ft
1500m à 5 km
500 à 1000 ft
800 à 1500m
200 à 500 ft
< 800m
< 200 ft
Symboles :   Orages  Brouillard  Fortes neiges  Fortes précipitations  Vent > 20 kt






- Altitude de l'aérodrome : 653 ft
- Code IATA : YQT


CYQT - Thunder Bay

DERNIER METAR :
  • 220000Z 24006KT 15SM FEW260 01/M09 A2984 RMK CI1 CI TR SLP123

METARs EXPIRÉS :
  • 212300Z 27011KT 20SM FEW260 04/M08 A2983 RMK CI1 SLP117
  • 212200Z 27009KT 20SM SKC 05/M08 A2981 RMK SLP111

TAF TAF CYQT
Valide du 21 à 20h jusqu'au 22 à 08h UTC


211943Z 2120/2208 27015G25KT P6SM SKC
BECMG 2122/2124 28010KT RMK NXT FCST BY 220200Z



MET'MAP, la Météo Aéronautique d'un coup d'oeil ! - Copyright ORBIFLY Décembre 2007 - Disclaimer

ORBIFLY MET'MAP TEAM :

Programmation & Développement : Alexandra Zaïnal
Sur une idée originale de : Baudouin d'Aumeries
Assistance à la programmation : Marc-Olivier Méhu
Soutien technique & logistique : Manuel Goepfert

Contact : metmap@orbifly.com




SOURCES & CREDITS :

   NOAA       Earth
Advisory